KAMA/AMA METAR and TAF weather

Enter ICAO airport designator
Station Type Date Time Source
KAMA METAR 2021/09/23 17:53 UTC NOAA

KAMA 231753Z 18020G29KT 10SM CLR 26/00 A3009 RMK AO2 PK WND 19029/1708 SLP145 T02610000 10261 20100 58009


Station Type Date Time Source
KAMA Decoded METAR 2021/09/23 17:53 UTC NOAA

AMARILLO INTERNATIONAL AIRPORT, TX, United States (KAMA) 35-13N 101-43W 1093M
Sep 23, 2021 - 01:53 PM EDT / 2021.09.23 1753 UTC
Wind: from the S (180 degrees) at 23 MPH (20 KT) gusting to 33 MPH (29 KT):0
Visibility: 10 mile(s):0
Sky conditions: clear
Temperature: 79.0 F (26.1 C)
Dew Point: 32.0 F (0.0 C)
Relative Humidity: 18%
Pressure (altimeter): 30.09 in. Hg (1018 hPa)
Pressure tendency: 0.03 inches (0.9 hPa) lower than three hours ago
ob: KAMA 231753Z 18020G29KT 10SM CLR 26/00 A3009 RMK AO2 PK WND 19029/1708 SLP145 T02610000 10261 20100 58009
cycle: 18

Station Type Date Time Source
KAMA TAF 2021/09/23 18:42 UTC NOAA

TAF KAMA 231739Z 2318/2418 21016G24KT P6SM FEW250
FM240800 20010KT P6SM SCT250

Example: see airport list